sensor_id;sensor_type;location;lat;lon;timestamp;pressure;altitude;pressure_sealevel;temperature;humidity
13015;BME280;6573;57.696;11.950;2023-04-04T00:01:03;103084.22;;;7.25;100.00
13015;BME280;6573;57.696;11.950;2023-04-04T00:03:33;103098.50;;;7.32;100.00
13015;BME280;6573;57.696;11.950;2023-04-04T00:06:01;103092.38;;;7.31;100.00
13015;BME280;6573;57.696;11.950;2023-04-04T00:08:29;103086.84;;;7.25;100.00
13015;BME280;6573;57.696;11.950;2023-04-04T00:10:58;103083.66;;;7.32;100.00
13015;BME280;6573;57.696;11.950;2023-04-04T00:13:27;103086.38;;;7.34;100.00
13015;BME280;6573;57.696;11.950;2023-04-04T00:15:55;103063.81;;;7.18;100.00
13015;BME280;6573;57.696;11.950;2023-04-04T00:18:24;103093.88;;;7.26;100.00
13015;BME280;6573;57.696;11.950;2023-04-04T00:20:54;103081.59;;;7.25;100.00
13015;BME280;6573;57.696;11.950;2023-04-04T00:23:22;103088.06;;;7.14;100.00
13015;BME280;6573;57.696;11.950;2023-04-04T00:25:51;103086.00;;;7.07;100.00
13015;BME280;6573;57.696;11.950;2023-04-04T00:28:20;103080.59;;;7.04;100.00
13015;BME280;6573;57.696;11.950;2023-04-04T00:30:48;103078.22;;;6.91;100.00
13015;BME280;6573;57.696;11.950;2023-04-04T00:33:16;103077.97;;;7.04;100.00
13015;BME280;6573;57.696;11.950;2023-04-04T00:35:47;103079.47;;;7.16;100.00
13015;BME280;6573;57.696;11.950;2023-04-04T00:38:16;103070.97;;;7.22;100.00
13015;BME280;6573;57.696;11.950;2023-04-04T00:40:47;103069.00;;;7.36;100.00
13015;BME280;6573;57.696;11.950;2023-04-04T00:43:16;103068.41;;;7.41;100.00
13015;BME280;6573;57.696;11.950;2023-04-04T00:45:45;103063.84;;;7.37;100.00
13015;BME280;6573;57.696;11.950;2023-04-04T00:48:14;103050.34;;;7.28;100.00
13015;BME280;6573;57.696;11.950;2023-04-04T00:50:42;103048.25;;;7.21;100.00
13015;BME280;6573;57.696;11.950;2023-04-04T00:53:11;103054.25;;;7.18;100.00
13015;BME280;6573;57.696;11.950;2023-04-04T00:55:40;103044.53;;;7.16;100.00
13015;BME280;6573;57.696;11.950;2023-04-04T00:58:10;103047.69;;;7.09;100.00
13015;BME280;6573;57.696;11.950;2023-04-04T01:00:38;103039.13;;;6.94;100.00
13015;BME280;6573;57.696;11.950;2023-04-04T01:03:08;103036.69;;;6.79;100.00
13015;BME280;6573;57.696;11.950;2023-04-04T01:05:38;103046.38;;;6.82;100.00
13015;BME280;6573;57.696;11.950;2023-04-04T01:08:07;103023.97;;;6.87;100.00
13015;BME280;6573;57.696;11.950;2023-04-04T01:10:36;103031.41;;;6.97;100.00
13015;BME280;6573;57.696;11.950;2023-04-04T01:13:08;103031.53;;;7.00;100.00
13015;BME280;6573;57.696;11.950;2023-04-04T01:15:36;103031.53;;;7.00;100.00
13015;BME280;6573;57.696;11.950;2023-04-04T01:18:06;103018.53;;;7.01;100.00
13015;BME280;6573;57.696;11.950;2023-04-04T01:20:41;103033.09;;;7.14;100.00
13015;BME280;6573;57.696;11.950;2023-04-04T01:23:11;103033.22;;;7.17;100.00
13015;BME280;6573;57.696;11.950;2023-04-04T01:25:41;103027.16;;;7.18;100.00
13015;BME280;6573;57.696;11.950;2023-04-04T01:28:10;103012.09;;;6.95;100.00
13015;BME280;6573;57.696;11.950;2023-04-04T01:30:39;103021.72;;;6.94;100.00
13015;BME280;6573;57.696;11.950;2023-04-04T01:33:14;103031.84;;;7.06;100.00
13015;BME280;6573;57.696;11.950;2023-04-04T01:35:55;103029.91;;;7.02;100.00
13015;BME280;6573;57.696;11.950;2023-04-04T01:38:32;103032.78;;;6.89;100.00
13015;BME280;6573;57.696;11.950;2023-04-04T01:41:07;103034.28;;;6.84;100.00
13015;BME280;6573;57.696;11.950;2023-04-04T01:43:38;103026.81;;;6.74;100.00
13015;BME280;6573;57.696;11.950;2023-04-04T01:46:06;103033.84;;;6.75;100.00
13015;BME280;6573;57.696;11.950;2023-04-04T01:48:34;103022.63;;;6.60;100.00
13015;BME280;6573;57.696;11.950;2023-04-04T01:51:03;103031.44;;;6.62;100.00
13015;BME280;6573;57.696;11.950;2023-04-04T01:53:31;102997.84;;;6.51;100.00
13015;BME280;6573;57.696;11.950;2023-04-04T01:55:59;103024.56;;;6.64;100.00
13015;BME280;6573;57.696;11.950;2023-04-04T01:58:29;103012.75;;;6.72;100.00
13015;BME280;6573;57.696;11.950;2023-04-04T02:00:58;103009.19;;;6.70;100.00
13015;BME280;6573;57.696;11.950;2023-04-04T02:03:26;103007.38;;;6.69;100.00
13015;BME280;6573;57.696;11.950;2023-04-04T02:05:54;103007.38;;;6.69;100.00
13015;BME280;6573;57.696;11.950;2023-04-04T02:08:22;103018.00;;;6.72;100.00
13015;BME280;6573;57.696;11.950;2023-04-04T02:10:51;102998.56;;;6.67;100.00
13015;BME280;6573;57.696;11.950;2023-04-04T02:13:19;103007.53;;;6.72;100.00
13015;BME280;6573;57.696;11.950;2023-04-04T02:15:49;102995.41;;;6.74;100.00
13015;BME280;6573;57.696;11.950;2023-04-04T02:18:18;102989.38;;;6.75;100.00
13015;BME280;6573;57.696;11.950;2023-04-04T02:20:47;102990.59;;;6.83;100.00
13015;BME280;6573;57.696;11.950;2023-04-04T02:23:22;102990.06;;;6.90;100.00
13015;BME280;6573;57.696;11.950;2023-04-04T02:25:50;102957.00;;;6.73;100.00
13015;BME280;6573;57.696;11.950;2023-04-04T02:28:19;102981.47;;;6.92;100.00
13015;BME280;6573;57.696;11.950;2023-04-04T02:30:48;102973.56;;;6.91;100.00
13015;BME280;6573;57.696;11.950;2023-04-04T02:33:17;102977.84;;;7.08;100.00
13015;BME280;6573;57.696;11.950;2023-04-04T02:35:45;102972.91;;;7.14;100.00
13015;BME280;6573;57.696;11.950;2023-04-04T02:38:13;102976.31;;;7.13;100.00
13015;BME280;6573;57.696;11.950;2023-04-04T02:40:44;102972.75;;;7.11;100.00
13015;BME280;6573;57.696;11.950;2023-04-04T02:43:12;102969.28;;;7.12;100.00
13015;BME280;6573;57.696;11.950;2023-04-04T02:45:40;102962.69;;;7.20;100.00
13015;BME280;6573;57.696;11.950;2023-04-04T02:48:10;102962.53;;;7.17;100.00
13015;BME280;6573;57.696;11.950;2023-04-04T02:50:39;102957.31;;;7.17;100.00
13015;BME280;6573;57.696;11.950;2023-04-04T02:53:07;102944.97;;;7.14;100.00
13015;BME280;6573;57.696;11.950;2023-04-04T02:55:35;102914.78;;;7.02;100.00
13015;BME280;6573;57.696;11.950;2023-04-04T02:58:03;102942.28;;;7.32;100.00
13015;BME280;6573;57.696;11.950;2023-04-04T03:00:31;102943.47;;;7.39;100.00
13015;BME280;6573;57.696;11.950;2023-04-04T03:03:00;102922.88;;;7.27;100.00
13015;BME280;6573;57.696;11.950;2023-04-04T03:05:30;102941.06;;;7.43;100.00
13015;BME280;6573;57.696;11.950;2023-04-04T03:07:59;102935.81;;;7.43;100.00
13015;BME280;6573;57.696;11.950;2023-04-04T03:10:28;102937.88;;;7.50;100.00
13015;BME280;6573;57.696;11.950;2023-04-04T03:12:57;102935.72;;;7.61;100.00
13015;BME280;6573;57.696;11.950;2023-04-04T03:15:25;102904.63;;;7.49;100.00
13015;BME280;6573;57.696;11.950;2023-04-04T03:17:53;102932.00;;;7.76;100.00
13015;BME280;6573;57.696;11.950;2023-04-04T03:20:22;102928.56;;;7.77;100.00
13015;BME280;6573;57.696;11.950;2023-04-04T03:22:52;102915.38;;;7.55;100.00
13015;BME280;6573;57.696;11.950;2023-04-04T03:25:23;102924.19;;;7.57;100.00
13015;BME280;6573;57.696;11.950;2023-04-04T03:27:52;102896.97;;;7.33;100.00
13015;BME280;6573;57.696;11.950;2023-04-04T03:30:20;102916.63;;;7.24;100.00
13015;BME280;6573;57.696;11.950;2023-04-04T03:32:49;102923.84;;;7.29;100.00
13015;BME280;6573;57.696;11.950;2023-04-04T03:35:17;102878.69;;;7.14;100.00
13015;BME280;6573;57.696;11.950;2023-04-04T03:37:45;102909.50;;;7.40;100.00
13015;BME280;6573;57.696;11.950;2023-04-04T03:40:19;102906.44;;;7.50;100.00
13015;BME280;6573;57.696;11.950;2023-04-04T03:42:47;102910.72;;;7.48;100.00
13015;BME280;6573;57.696;11.950;2023-04-04T03:45:15;102895.97;;;7.50;100.00
13015;BME280;6573;57.696;11.950;2023-04-04T03:47:44;102911.16;;;7.38;100.00
13015;BME280;6573;57.696;11.950;2023-04-04T03:50:13;102918.38;;;7.25;100.00
13015;BME280;6573;57.696;11.950;2023-04-04T03:52:41;102905.63;;;7.32;100.00
13015;BME280;6573;57.696;11.950;2023-04-04T03:55:10;102906.16;;;7.44;100.00
13015;BME280;6573;57.696;11.950;2023-04-04T03:57:40;102899.16;;;7.43;100.00
13015;BME280;6573;57.696;11.950;2023-04-04T04:00:09;102890.19;;;7.38;100.00
13015;BME280;6573;57.696;11.950;2023-04-04T04:02:38;102906.16;;;7.44;100.00
13015;BME280;6573;57.696;11.950;2023-04-04T04:05:07;102904.53;;;7.46;100.00
13015;BME280;6573;57.696;11.950;2023-04-04T04:07:35;102900.91;;;7.44;100.00
13015;BME280;6573;57.696;11.950;2023-04-04T04:10:05;102892.00;;;7.39;100.00
13015;BME280;6573;57.696;11.950;2023-04-04T04:12:33;102899.41;;;7.49;100.00
13015;BME280;6573;57.696;11.950;2023-04-04T04:15:03;102873.34;;;7.32;100.00
13015;BME280;6573;57.696;11.950;2023-04-04T04:17:31;102895.59;;;7.22;100.00
13015;BME280;6573;57.696;11.950;2023-04-04T04:20:00;102890.78;;;7.12;100.00
13015;BME280;6573;57.696;11.950;2023-04-04T04:22:28;102897.31;;;7.02;100.00
13015;BME280;6573;57.696;11.950;2023-04-04T04:24:56;102894.84;;;7.05;100.00
13015;BME280;6573;57.696;11.950;2023-04-04T04:27:25;102890.53;;;7.06;100.00
13015;BME280;6573;57.696;11.950;2023-04-04T04:29:53;102884.38;;;7.05;100.00
13015;BME280;6573;57.696;11.950;2023-04-04T04:32:23;102890.09;;;7.16;100.00
13015;BME280;6573;57.696;11.950;2023-04-04T04:34:53;102860.91;;;7.07;100.00
13015;BME280;6573;57.696;11.950;2023-04-04T04:37:22;102889.41;;;7.20;100.00
13015;BME280;6573;57.696;11.950;2023-04-04T04:39:52;102897.69;;;7.29;100.00
13015;BME280;6573;57.696;11.950;2023-04-04T04:42:20;102885.34;;;7.47;100.00
13015;BME280;6573;57.696;11.950;2023-04-04T04:44:48;102885.50;;;7.71;100.00
13015;BME280;6573;57.696;11.950;2023-04-04T04:47:17;102884.28;;;7.83;100.00
13015;BME280;6573;57.696;11.950;2023-04-04T04:49:46;102886.56;;;7.97;100.00
13015;BME280;6573;57.696;11.950;2023-04-04T04:52:15;102885.09;;;8.03;100.00
13015;BME280;6573;57.696;11.950;2023-04-04T04:54:45;102884.69;;;8.15;100.00
13015;BME280;6573;57.696;11.950;2023-04-04T04:57:13;102890.84;;;8.15;100.00
13015;BME280;6573;57.696;11.950;2023-04-04T04:59:41;102885.94;;;8.24;100.00
13015;BME280;6573;57.696;11.950;2023-04-04T05:02:10;102894.16;;;8.32;100.00
13015;BME280;6573;57.696;11.950;2023-04-04T05:04:38;102887.13;;;8.31;100.00
13015;BME280;6573;57.696;11.950;2023-04-04T05:07:08;102882.13;;;8.37;100.00
13015;BME280;6573;57.696;11.950;2023-04-04T05:09:38;102891.06;;;8.42;100.00
13015;BME280;6573;57.696;11.950;2023-04-04T05:12:06;102880.91;;;8.29;100.00
13015;BME280;6573;57.696;11.950;2023-04-04T05:14:34;102879.97;;;8.27;100.00
13015;BME280;6573;57.696;11.950;2023-04-04T05:17:03;102888.09;;;8.33;100.00
13015;BME280;6573;57.696;11.950;2023-04-04T05:19:32;102767.06;;;7.57;100.00
13015;BME280;6573;57.696;11.950;2023-04-04T05:22:00;102883.28;;;8.23;100.00
13015;BME280;6573;57.696;11.950;2023-04-04T05:24:30;102881.59;;;8.25;100.00
13015;BME280;6573;57.696;11.950;2023-04-04T05:26:58;102883.41;;;8.26;100.00
13015;BME280;6573;57.696;11.950;2023-04-04T05:29:27;102880.41;;;8.17;100.00
13015;BME280;6573;57.696;11.950;2023-04-04T05:31:55;102889.94;;;8.15;100.00
13015;BME280;6573;57.696;11.950;2023-04-04T05:34:23;102888.25;;;8.17;100.00
13015;BME280;6573;57.696;11.950;2023-04-04T05:36:52;102884.69;;;8.15;100.00
13015;BME280;6573;57.696;11.950;2023-04-04T05:39:21;102887.78;;;8.05;100.00
13015;BME280;6573;57.696;11.950;2023-04-04T05:41:51;102878.81;;;8.00;100.00
13015;BME280;6573;57.696;11.950;2023-04-04T05:44:19;102859.53;;;7.98;100.00
13015;BME280;6573;57.696;11.950;2023-04-04T05:46:47;102868.69;;;8.09;100.00
13015;BME280;6573;57.696;11.950;2023-04-04T05:49:16;102877.56;;;8.11;100.00
13015;BME280;6573;57.696;11.950;2023-04-04T05:51:44;102858.34;;;8.12;100.00
13015;BME280;6573;57.696;11.950;2023-04-04T05:54:13;102875.03;;;8.14;100.00
13015;BME280;6573;57.696;11.950;2023-04-04T05:56:41;102879.31;;;8.12;100.00
13015;BME280;6573;57.696;11.950;2023-04-04T05:59:11;102843.09;;;8.02;100.00
13015;BME280;6573;57.696;11.950;2023-04-04T06:01:39;102880.78;;;8.26;100.00
13015;BME280;6573;57.696;11.950;2023-04-04T06:04:07;102869.84;;;8.36;100.00
13015;BME280;6573;57.696;11.950;2023-04-04T06:06:36;102862.56;;;8.29;100.00
13015;BME280;6573;57.696;11.950;2023-04-04T06:09:04;102878.75;;;8.41;100.00
13015;BME280;6573;57.696;11.950;2023-04-04T06:11:34;102873.78;;;8.47;100.00
13015;BME280;6573;57.696;11.950;2023-04-04T06:14:03;102867.09;;;8.55;100.00
13015;BME280;6573;57.696;11.950;2023-04-04T06:16:33;102869.75;;;8.57;100.00
13015;BME280;6573;57.696;11.950;2023-04-04T06:19:01;102866.97;;;8.52;100.00
13015;BME280;6573;57.696;11.950;2023-04-04T06:21:30;102868.53;;;8.47;100.00
13015;BME280;6573;57.696;11.950;2023-04-04T06:23:58;102864.09;;;8.46;100.00
13015;BME280;6573;57.696;11.950;2023-04-04T06:26:26;102834.69;;;8.31;100.00
13015;BME280;6573;57.696;11.950;2023-04-04T06:28:55;102865.41;;;8.57;100.00
13015;BME280;6573;57.696;11.950;2023-04-04T06:31:23;102858.38;;;8.56;100.00
13015;BME280;6573;57.696;11.950;2023-04-04T06:33:53;102860.41;;;8.63;100.00
13015;BME280;6573;57.696;11.950;2023-04-04T06:36:21;102865.09;;;8.72;100.00
13015;BME280;6573;57.696;11.950;2023-04-04T06:38:49;102856.47;;;8.76;100.00
13015;BME280;6573;57.696;11.950;2023-04-04T06:41:20;102855.63;;;8.75;100.00
13015;BME280;6573;57.696;11.950;2023-04-04T06:43:48;102856.81;;;8.61;100.00
13015;BME280;6573;57.696;11.950;2023-04-04T06:46:17;102835.38;;;8.49;100.00
13015;BME280;6573;57.696;11.950;2023-04-04T06:48:45;102864.19;;;8.71;100.00
13015;BME280;6573;57.696;11.950;2023-04-04T06:51:15;102705.38;;;7.88;100.00
13015;BME280;6573;57.696;11.950;2023-04-04T06:53:44;102848.25;;;8.89;100.00
13015;BME280;6573;57.696;11.950;2023-04-04T06:56:12;102852.31;;;9.04;100.00
13015;BME280;6573;57.696;11.950;2023-04-04T06:58:40;102837.63;;;9.09;100.00
13015;BME280;6573;57.696;11.950;2023-04-04T07:01:09;102825.66;;;9.18;100.00
13015;BME280;6573;57.696;11.950;2023-04-04T07:03:37;102849.19;;;9.40;100.00
13015;BME280;6573;57.696;11.950;2023-04-04T07:06:06;102831.44;;;9.33;100.00
13015;BME280;6573;57.696;11.950;2023-04-04T07:08:35;102850.97;;;9.41;100.00
13015;BME280;6573;57.696;11.950;2023-04-04T07:11:04;102832.38;;;9.35;100.00
13015;BME280;6573;57.696;11.950;2023-04-04T07:13:33;102842.66;;;9.54;100.00
13015;BME280;6573;57.696;11.950;2023-04-04T07:16:02;102807.69;;;9.30;100.00
13015;BME280;6573;57.696;11.950;2023-04-04T07:18:30;102826.69;;;9.48;100.00
13015;BME280;6573;57.696;11.950;2023-04-04T07:20:59;102834.91;;;9.57;100.00
13015;BME280;6573;57.696;11.950;2023-04-04T07:23:27;102825.22;;;9.56;100.00
13015;BME280;6573;57.696;11.950;2023-04-04T07:25:57;102822.72;;;9.60;100.00
13015;BME280;6573;57.696;11.950;2023-04-04T07:28:25;102828.25;;;9.68;100.00
13015;BME280;6573;57.696;11.950;2023-04-04T07:30:53;102795.25;;;9.51;100.00
13015;BME280;6573;57.696;11.950;2023-04-04T07:33:22;102813.22;;;9.64;100.00
13015;BME280;6573;57.696;11.950;2023-04-04T07:35:50;102808.09;;;9.67;100.00
13015;BME280;6573;57.696;11.950;2023-04-04T07:38:19;102829.19;;;9.97;100.00
13015;BME280;6573;57.696;11.950;2023-04-04T07:40:47;102829.47;;;10.06;100.00
13015;BME280;6573;57.696;11.950;2023-04-04T07:43:17;102825.13;;;10.06;100.00
13015;BME280;6573;57.696;11.950;2023-04-04T07:45:46;102825.47;;;9.90;100.00
13015;BME280;6573;57.696;11.950;2023-04-04T07:48:14;102830.16;;;10.00;100.00
13015;BME280;6573;57.696;11.950;2023-04-04T07:50:42;102828.53;;;10.04;100.00
13015;BME280;6573;57.696;11.950;2023-04-04T07:53:11;102805.56;;;9.98;100.00
13015;BME280;6573;57.696;11.950;2023-04-04T07:55:39;102822.13;;;10.22;100.00
13015;BME280;6573;57.696;11.950;2023-04-04T07:58:07;102815.84;;;10.17;100.00
13015;BME280;6573;57.696;11.950;2023-04-04T08:00:38;102816.03;;;10.23;100.00
13015;BME280;6573;57.696;11.950;2023-04-04T08:03:06;102810.38;;;10.39;100.00
13015;BME280;6573;57.696;11.950;2023-04-04T08:05:34;102815.06;;;10.50;100.00
13015;BME280;6573;57.696;11.950;2023-04-04T08:08:03;102806.91;;;10.40;100.00
13015;BME280;6573;57.696;11.950;2023-04-04T08:10:31;102805.50;;;10.52;100.00
13015;BME280;6573;57.696;11.950;2023-04-04T08:12:59;102815.03;;;10.48;100.00
13015;BME280;6573;57.696;11.950;2023-04-04T08:15:28;102800.03;;;10.46;100.00
13015;BME280;6573;57.696;11.950;2023-04-04T08:17:57;102813.88;;;10.68;100.00
13015;BME280;6573;57.696;11.950;2023-04-04T08:20:26;102807.81;;;10.71;100.00
13015;BME280;6573;57.696;11.950;2023-04-04T08:22:55;102795.03;;;10.55;100.00
13015;BME280;6573;57.696;11.950;2023-04-04T08:25:24;102807.63;;;10.65;100.00
13015;BME280;6573;57.696;11.950;2023-04-04T08:27:53;102810.56;;;10.75;100.00
13015;BME280;6573;57.696;11.950;2023-04-04T08:30:21;102806.44;;;10.85;100.00
13015;BME280;6573;57.696;11.950;2023-04-04T08:32:50;102808.47;;;10.95;100.00
13015;BME280;6573;57.696;11.950;2023-04-04T08:35:19;102812.94;;;10.97;100.00
13015;BME280;6573;57.696;11.950;2023-04-04T08:37:48;102821.91;;;10.73;100.00
13015;BME280;6573;57.696;11.950;2023-04-04T08:40:16;102813.06;;;10.71;100.00
13015;BME280;6573;57.696;11.950;2023-04-04T08:42:45;102811.81;;;10.28;100.00
13015;BME280;6573;57.696;11.950;2023-04-04T08:45:16;102815.38;;;10.30;100.00
13015;BME280;6573;57.696;11.950;2023-04-04T08:47:47;102817.25;;;10.34;100.00
13015;BME280;6573;57.696;11.950;2023-04-04T08:50:19;102790.41;;;10.16;100.00
13015;BME280;6573;57.696;11.950;2023-04-04T08:52:48;102808.63;;;10.38;100.00
13015;BME280;6573;57.696;11.950;2023-04-04T08:55:17;102795.81;;;10.51;100.00
13015;BME280;6573;57.696;11.950;2023-04-04T08:57:46;102802.06;;;10.85;100.00
13015;BME280;6573;57.696;11.950;2023-04-04T09:00:15;102792.44;;;10.86;100.00
13015;BME280;6573;57.696;11.950;2023-04-04T09:02:52;102800.16;;;11.11;100.00
13015;BME280;6573;57.696;11.950;2023-04-04T09:05:25;102779.09;;;11.11;100.00
13015;BME280;6573;57.696;11.950;2023-04-04T09:07:57;102806.78;;;10.97;100.00
13015;BME280;6573;57.696;11.950;2023-04-04T09:10:26;102807.00;;;10.44;100.00
13015;BME280;6573;57.696;11.950;2023-04-04T09:12:59;102764.06;;;10.76;100.00
13015;BME280;6573;57.696;11.950;2023-04-04T09:15:44;102804.97;;;11.27;100.00
13015;BME280;6573;57.696;11.950;2023-04-04T09:18:13;102797.25;;;11.02;100.00
13015;BME280;6573;57.696;11.950;2023-04-04T09:20:44;102799.75;;;10.96;100.00
13015;BME280;6573;57.696;11.950;2023-04-04T09:23:14;102806.88;;;11.00;100.00
13015;BME280;6573;57.696;11.950;2023-04-04T09:25:47;102797.00;;;10.91;100.00
13015;BME280;6573;57.696;11.950;2023-04-04T09:28:20;102790.81;;;10.91;100.00
13015;BME280;6573;57.696;11.950;2023-04-04T09:30:50;102795.13;;;11.20;100.00
13015;BME280;6573;57.696;11.950;2023-04-04T09:33:20;102793.91;;;11.40;100.00
13015;BME280;6573;57.696;11.950;2023-04-04T09:35:56;102792.50;;;11.22;100.00
13015;BME280;6573;57.696;11.950;2023-04-04T09:38:26;102770.00;;;11.00;100.00
13015;BME280;6573;57.696;11.950;2023-04-04T09:40:56;102778.00;;;11.04;100.00
13015;BME280;6573;57.696;11.950;2023-04-04T09:43:24;102781.63;;;11.08;100.00
13015;BME280;6573;57.696;11.950;2023-04-04T09:45:58;102769.06;;;10.98;100.00
13015;BME280;6573;57.696;11.950;2023-04-04T09:48:30;102775.97;;;11.27;100.00
13015;BME280;6573;57.696;11.950;2023-04-04T09:51:03;102788.13;;;11.22;100.00
13015;BME280;6573;57.696;11.950;2023-04-04T09:53:33;102775.97;;;11.27;100.00
13015;BME280;6573;57.696;11.950;2023-04-04T09:56:03;102775.19;;;11.65;100.00
13015;BME280;6573;57.696;11.950;2023-04-04T09:58:33;102783.84;;;11.60;100.00
13015;BME280;6573;57.696;11.950;2023-04-04T10:01:07;102767.16;;;11.97;100.00
13015;BME280;6573;57.696;11.950;2023-04-04T10:03:36;102781.19;;;11.96;100.00
13015;BME280;6573;57.696;11.950;2023-04-04T10:06:07;102778.47;;;11.55;100.00
13015;BME280;6573;57.696;11.950;2023-04-04T10:08:38;102794.13;;;11.49;100.00
13015;BME280;6573;57.696;11.950;2023-04-04T10:11:07;102783.34;;;11.40;100.00
13015;BME280;6573;57.696;11.950;2023-04-04T10:13:39;102785.28;;;11.47;100.00
13015;BME280;6573;57.696;11.950;2023-04-04T10:16:10;102783.31;;;11.73;100.00
13015;BME280;6573;57.696;11.950;2023-04-04T10:18:38;102785.53;;;11.92;100.00
13015;BME280;6573;57.696;11.950;2023-04-04T10:21:08;102766.25;;;11.96;100.00
13015;BME280;6573;57.696;11.950;2023-04-04T10:23:41;102775.06;;;11.95;100.00
13015;BME280;6573;57.696;11.950;2023-04-04T10:26:10;102769.53;;;11.85;100.00
13015;BME280;6573;57.696;11.950;2023-04-04T10:28:39;102760.16;;;11.99;100.00
13015;BME280;6573;57.696;11.950;2023-04-04T10:31:15;102755.44;;;12.23;100.00
13015;BME280;6573;57.696;11.950;2023-04-04T10:33:49;102750.31;;;12.72;100.00
13015;BME280;6573;57.696;11.950;2023-04-04T10:36:22;102753.47;;;13.02;100.00
13015;BME280;6573;57.696;11.950;2023-04-04T10:39:00;102734.81;;;12.92;100.00
13015;BME280;6573;57.696;11.950;2023-04-04T10:41:32;102741.03;;;12.95;100.00
13015;BME280;6573;57.696;11.950;2023-04-04T10:44:14;102742.13;;;12.60;100.00
13015;BME280;6573;57.696;11.950;2023-04-04T10:46:46;102745.00;;;12.29;100.00
13015;BME280;6573;57.696;11.950;2023-04-04T10:49:20;102745.41;;;12.47;100.00
13015;BME280;6573;57.696;11.950;2023-04-04T10:51:52;102735.50;;;12.37;100.00
13015;BME280;6573;57.696;11.950;2023-04-04T10:54:24;102730.03;;;12.71;100.00
13015;BME280;6573;57.696;11.950;2023-04-04T10:56:56;102708.31;;;12.41;100.00
13015;BME280;6573;57.696;11.950;2023-04-04T10:59:26;102722.41;;;12.43;100.00
13015;BME280;6573;57.696;11.950;2023-04-04T11:01:56;102729.97;;;12.68;100.00
13015;BME280;6573;57.696;11.950;2023-04-04T11:04:31;102714.31;;;12.77;100.00
13015;BME280;6573;57.696;11.950;2023-04-04T11:07:14;102714.19;;;12.73;100.00
13015;BME280;6573;57.696;11.950;2023-04-04T11:09:51;102724.13;;;12.84;100.00
13015;BME280;6573;57.696;11.950;2023-04-04T11:12:26;102710.03;;;12.85;100.00
13015;BME280;6573;57.696;11.950;2023-04-04T11:14:57;102719.63;;;12.80;100.00
13015;BME280;6573;57.696;11.950;2023-04-04T11:17:41;102692.81;;;12.59;100.00
13015;BME280;6573;57.696;11.950;2023-04-04T11:20:10;102722.53;;;12.49;100.00
13015;BME280;6573;57.696;11.950;2023-04-04T11:22:43;102701.56;;;12.55;100.00
13015;BME280;6573;57.696;11.950;2023-04-04T11:25:30;102715.47;;;12.48;98.55
13015;BME280;6573;57.696;11.950;2023-04-04T11:28:07;102719.31;;;12.65;99.71
13015;BME280;6573;57.696;11.950;2023-04-04T11:30:40;102716.13;;;12.81;97.44
13015;BME280;6573;57.696;11.950;2023-04-04T11:33:25;102713.88;;;12.56;94.45
13015;BME280;6573;57.696;11.950;2023-04-04T11:36:04;102710.41;;;12.57;92.83
13015;BME280;6573;57.696;11.950;2023-04-04T11:38:38;102711.81;;;12.85;90.50
13015;BME280;6573;57.696;11.950;2023-04-04T11:41:08;102698.59;;;12.86;88.93
13015;BME280;6573;57.696;11.950;2023-04-04T11:43:43;102698.69;;;12.89;86.75
13015;BME280;6573;57.696;11.950;2023-04-04T11:46:16;102694.94;;;12.78;86.91
13015;BME280;6573;57.696;11.950;2023-04-04T11:48:46;102701.97;;;12.78;86.54
13015;BME280;6573;57.696;11.950;2023-04-04T11:51:15;102701.50;;;12.52;85.14
13015;BME280;6573;57.696;11.950;2023-04-04T11:53:47;102699.47;;;12.39;83.92
13015;BME280;6573;57.696;11.950;2023-04-04T11:56:16;102693.88;;;12.67;84.55
13015;BME280;6573;57.696;11.950;2023-04-04T11:58:46;102686.03;;;12.73;83.21
13015;BME280;6573;57.696;11.950;2023-04-04T12:01:27;102695.09;;;12.41;81.14
13015;BME280;6573;57.696;11.950;2023-04-04T12:03:58;102679.94;;;12.31;80.92
13015;BME280;6573;57.696;11.950;2023-04-04T12:06:28;102694.56;;;12.57;80.34
13015;BME280;6573;57.696;11.950;2023-04-04T12:09:00;102687.47;;;12.56;79.29
13015;BME280;6573;57.696;11.950;2023-04-04T12:11:30;102687.53;;;12.59;79.54
13015;BME280;6573;57.696;11.950;2023-04-04T12:13:59;102677.06;;;12.65;78.31
13015;BME280;6573;57.696;11.950;2023-04-04T12:16:28;102668.91;;;12.99;78.06
13015;BME280;6573;57.696;11.950;2023-04-04T12:19:00;102663.00;;;13.14;77.26
13015;BME280;6573;57.696;11.950;2023-04-04T12:21:30;102673.84;;;13.32;76.83
13015;BME280;6573;57.696;11.950;2023-04-04T12:24:00;102665.09;;;13.35;76.38
13015;BME280;6573;57.696;11.950;2023-04-04T12:26:28;102662.91;;;13.65;75.99
13015;BME280;6573;57.696;11.950;2023-04-04T12:28:59;102659.66;;;13.84;76.27
13015;BME280;6573;57.696;11.950;2023-04-04T12:31:28;102652.31;;;13.65;75.58
13015;BME280;6573;57.696;11.950;2023-04-04T12:33:57;102643.38;;;13.57;75.22
13015;BME280;6573;57.696;11.950;2023-04-04T12:36:28;102660.66;;;13.97;75.09
13015;BME280;6573;57.696;11.950;2023-04-04T12:39:00;102652.31;;;13.65;73.69
13015;BME280;6573;57.696;11.950;2023-04-04T12:41:29;102648.72;;;13.60;73.82
13015;BME280;6573;57.696;11.950;2023-04-04T12:44:01;102641.88;;;13.74;73.49
13015;BME280;6573;57.696;11.950;2023-04-04T12:46:34;102636.59;;;13.77;73.07
13015;BME280;6573;57.696;11.950;2023-04-04T12:49:05;102631.09;;;13.62;73.29
13015;BME280;6573;57.696;11.950;2023-04-04T12:51:34;102633.84;;;13.67;72.33
13015;BME280;6573;57.696;11.950;2023-04-04T12:54:05;102541.91;;;12.87;72.35
13015;BME280;6573;57.696;11.950;2023-04-04T12:56:34;102602.47;;;13.31;73.29
13015;BME280;6573;57.696;11.950;2023-04-04T12:59:03;102632.41;;;13.30;73.01
13015;BME280;6573;57.696;11.950;2023-04-04T13:01:37;102628.41;;;13.56;73.83